sensor_id;sensor_type;location;lat;lon;timestamp;temperature;humidity
25200;DHT22;33094;48.782;9.162;2023-01-30T03:10:58;-1.00;99.90
25200;DHT22;33094;48.782;9.162;2023-01-30T03:16:32;-1.10;99.90
25200;DHT22;33094;48.782;9.162;2023-01-30T03:19:01;-1.00;99.90
25200;DHT22;33094;48.782;9.162;2023-01-30T03:21:27;0.80;99.90
25200;DHT22;33094;48.782;9.162;2023-01-30T03:23:53;-0.90;99.90
25200;DHT22;33094;48.782;9.162;2023-01-30T03:26:25;-0.70;99.90
25200;DHT22;33094;48.782;9.162;2023-01-30T03:28:52;0.10;99.90
25200;DHT22;33094;48.782;9.162;2023-01-30T03:31:18;-0.60;99.90
25200;DHT22;33094;48.782;9.162;2023-01-30T03:33:43;1.10;99.90
25200;DHT22;33094;48.782;9.162;2023-01-30T03:36:09;-0.50;99.90
25200;DHT22;33094;48.782;9.162;2023-01-30T03:38:35;-0.30;99.90
25200;DHT22;33094;48.782;9.162;2023-01-30T03:41:02;2.30;99.90
25200;DHT22;33094;48.782;9.162;2023-01-30T03:43:28;0.00;99.90
25200;DHT22;33094;48.782;9.162;2023-01-30T03:45:53;0.10;99.90
25200;DHT22;33094;48.782;9.162;2023-01-30T03:48:19;0.20;99.90
25200;DHT22;33094;48.782;9.162;2023-01-30T03:50:44;1.80;99.90
25200;DHT22;33094;48.782;9.162;2023-01-30T03:53:10;1.10;99.90
25200;DHT22;33094;48.782;9.162;2023-01-30T03:55:36;0.30;99.90
25200;DHT22;33094;48.782;9.162;2023-01-30T03:58:02;0.30;99.90
25200;DHT22;33094;48.782;9.162;2023-01-30T04:00:27;0.30;99.90
25200;DHT22;33094;48.782;9.162;2023-01-30T04:02:53;0.00;99.90
25200;DHT22;33094;48.782;9.162;2023-01-30T04:05:19;0.20;99.90
25200;DHT22;33094;48.782;9.162;2023-01-30T04:07:45;0.20;99.90
25200;DHT22;33094;48.782;9.162;2023-01-30T04:10:11;0.20;99.90
25200;DHT22;33094;48.782;9.162;2023-01-30T04:12:40;0.90;99.90
25200;DHT22;33094;48.782;9.162;2023-01-30T04:15:07;0.20;99.90
25200;DHT22;33094;48.782;9.162;2023-01-30T04:17:33;0.20;99.90
25200;DHT22;33094;48.782;9.162;2023-01-30T04:19:58;0.10;99.90
25200;DHT22;33094;48.782;9.162;2023-01-30T04:22:24;0.20;99.90
25200;DHT22;33094;48.782;9.162;2023-01-30T04:24:49;0.20;99.90
25200;DHT22;33094;48.782;9.162;2023-01-30T04:27:15;0.10;99.90
25200;DHT22;33094;48.782;9.162;2023-01-30T04:29:41;0.30;99.90
25200;DHT22;33094;48.782;9.162;2023-01-30T04:32:07;2.30;99.90
25200;DHT22;33094;48.782;9.162;2023-01-30T04:34:32;0.30;99.90
25200;DHT22;33094;48.782;9.162;2023-01-30T04:36:58;0.30;99.90
25200;DHT22;33094;48.782;9.162;2023-01-30T04:39:24;1.00;99.90
25200;DHT22;33094;48.782;9.162;2023-01-30T04:41:50;0.80;99.90
25200;DHT22;33094;48.782;9.162;2023-01-30T04:44:16;0.60;99.90
25200;DHT22;33094;48.782;9.162;2023-01-30T04:46:42;2.30;99.90
25200;DHT22;33094;48.782;9.162;2023-01-30T04:49:09;1.40;99.90
25200;DHT22;33094;48.782;9.162;2023-01-30T04:51:35;0.70;99.90
25200;DHT22;33094;48.782;9.162;2023-01-30T04:54:01;2.60;99.90
25200;DHT22;33094;48.782;9.162;2023-01-30T04:56:27;2.60;99.90
25200;DHT22;33094;48.782;9.162;2023-01-30T04:58:53;1.20;99.90
25200;DHT22;33094;48.782;9.162;2023-01-30T05:01:31;2.70;99.90
25200;DHT22;33094;48.782;9.162;2023-01-30T05:03:57;0.80;99.90
25200;DHT22;33094;48.782;9.162;2023-01-30T05:06:23;1.90;99.90
25200;DHT22;33094;48.782;9.162;2023-01-30T05:08:50;0.80;99.90
25200;DHT22;33094;48.782;9.162;2023-01-30T05:11:16;0.80;99.90
25200;DHT22;33094;48.782;9.162;2023-01-30T05:13:42;1.00;99.90
25200;DHT22;33094;48.782;9.162;2023-01-30T05:16:11;0.90;99.90
25200;DHT22;33094;48.782;9.162;2023-01-30T05:18:37;0.90;99.90
25200;DHT22;33094;48.782;9.162;2023-01-30T05:21:29;0.90;99.90
25200;DHT22;33094;48.782;9.162;2023-01-30T05:23:55;2.00;99.90
25200;DHT22;33094;48.782;9.162;2023-01-30T05:26:22;0.80;99.90
25200;DHT22;33094;48.782;9.162;2023-01-30T05:28:56;0.80;99.90
25200;DHT22;33094;48.782;9.162;2023-01-30T05:31:22;0.80;99.90
25200;DHT22;33094;48.782;9.162;2023-01-30T05:33:49;2.90;99.90
25200;DHT22;33094;48.782;9.162;2023-01-30T05:36:17;1.50;99.90
25200;DHT22;33094;48.782;9.162;2023-01-30T05:38:43;0.90;99.90
25200;DHT22;33094;48.782;9.162;2023-01-30T05:41:11;0.90;99.90
25200;DHT22;33094;48.782;9.162;2023-01-30T05:43:36;0.90;99.90
25200;DHT22;33094;48.782;9.162;2023-01-30T05:46:04;2.80;99.90
25200;DHT22;33094;48.782;9.162;2023-01-30T05:48:32;0.90;99.90
25200;DHT22;33094;48.782;9.162;2023-01-30T05:50:58;1.00;99.90
25200;DHT22;33094;48.782;9.162;2023-01-30T05:53:26;1.00;99.90
25200;DHT22;33094;48.782;9.162;2023-01-30T05:55:57;2.90;99.90
25200;DHT22;33094;48.782;9.162;2023-01-30T05:58:23;1.00;99.90
25200;DHT22;33094;48.782;9.162;2023-01-30T06:00:49;1.00;99.90
25200;DHT22;33094;48.782;9.162;2023-01-30T06:03:15;2.10;99.90
25200;DHT22;33094;48.782;9.162;2023-01-30T06:05:40;1.00;99.90
25200;DHT22;33094;48.782;9.162;2023-01-30T06:08:06;1.10;99.90
25200;DHT22;33094;48.782;9.162;2023-01-30T06:10:33;1.10;99.90
25200;DHT22;33094;48.782;9.162;2023-01-30T06:12:59;2.80;99.90
25200;DHT22;33094;48.782;9.162;2023-01-30T06:15:24;2.70;99.90
25200;DHT22;33094;48.782;9.162;2023-01-30T06:17:50;2.70;99.90
25200;DHT22;33094;48.782;9.162;2023-01-30T06:20:16;1.10;99.90
25200;DHT22;33094;48.782;9.162;2023-01-30T06:22:41;1.10;99.90
25200;DHT22;33094;48.782;9.162;2023-01-30T06:25:07;1.10;99.90
25200;DHT22;33094;48.782;9.162;2023-01-30T06:27:34;1.00;99.90
25200;DHT22;33094;48.782;9.162;2023-01-30T06:29:59;0.80;99.90
25200;DHT22;33094;48.782;9.162;2023-01-30T06:32:25;1.00;99.90
25200;DHT22;33094;48.782;9.162;2023-01-30T06:34:51;2.30;99.90
25200;DHT22;33094;48.782;9.162;2023-01-30T06:37:16;1.00;99.90
25200;DHT22;33094;48.782;9.162;2023-01-30T06:39:42;2.80;99.90
25200;DHT22;33094;48.782;9.162;2023-01-30T06:42:08;2.50;99.90
25200;DHT22;33094;48.782;9.162;2023-01-30T06:44:34;-0.70;99.90
25200;DHT22;33094;48.782;9.162;2023-01-30T06:46:59;1.00;99.90
25200;DHT22;33094;48.782;9.162;2023-01-30T06:49:25;2.00;99.90
25200;DHT22;33094;48.782;9.162;2023-01-30T06:51:51;1.10;99.90
25200;DHT22;33094;48.782;9.162;2023-01-30T06:54:17;2.50;99.90
25200;DHT22;33094;48.782;9.162;2023-01-30T06:56:42;-0.40;99.90
25200;DHT22;33094;48.782;9.162;2023-01-30T06:59:08;1.10;99.90
25200;DHT22;33094;48.782;9.162;2023-01-30T07:01:34;-0.60;99.90
25200;DHT22;33094;48.782;9.162;2023-01-30T07:04:00;1.20;99.90
25200;DHT22;33094;48.782;9.162;2023-01-30T07:06:26;3.00;99.90
25200;DHT22;33094;48.782;9.162;2023-01-30T07:08:52;1.30;99.90
25200;DHT22;33094;48.782;9.162;2023-01-30T07:11:17;1.40;99.90
25200;DHT22;33094;48.782;9.162;2023-01-30T07:13:43;3.20;99.90
25200;DHT22;33094;48.782;9.162;2023-01-30T07:16:09;1.30;99.90
25200;DHT22;33094;48.782;9.162;2023-01-30T07:18:34;1.30;99.90
25200;DHT22;33094;48.782;9.162;2023-01-30T07:21:00;3.80;99.90
25200;DHT22;33094;48.782;9.162;2023-01-30T07:23:26;1.30;99.90
25200;DHT22;33094;48.782;9.162;2023-01-30T07:25:52;1.90;99.90
25200;DHT22;33094;48.782;9.162;2023-01-30T07:28:17;1.30;99.90
25200;DHT22;33094;48.782;9.162;2023-01-30T07:30:43;1.00;99.90
25200;DHT22;33094;48.782;9.162;2023-01-30T07:33:09;1.30;99.90
25200;DHT22;33094;48.782;9.162;2023-01-30T07:35:36;0.50;99.90
25200;DHT22;33094;48.782;9.162;2023-01-30T07:38:02;2.90;99.90
25200;DHT22;33094;48.782;9.162;2023-01-30T07:40:27;3.40;99.90
25200;DHT22;33094;48.782;9.162;2023-01-30T07:43:02;3.70;99.90
25200;DHT22;33094;48.782;9.162;2023-01-30T07:48:05;1.60;99.90
25200;DHT22;33094;48.782;9.162;2023-01-30T07:50:31;1.70;99.90
25200;DHT22;33094;48.782;9.162;2023-01-30T07:52:57;1.70;99.90
25200;DHT22;33094;48.782;9.162;2023-01-30T07:55:22;1.70;99.90
25200;DHT22;33094;48.782;9.162;2023-01-30T07:57:48;2.70;99.90
25200;DHT22;33094;48.782;9.162;2023-01-30T08:00:14;-0.30;99.90
25200;DHT22;33094;48.782;9.162;2023-01-30T08:02:40;1.90;99.90
25200;DHT22;33094;48.782;9.162;2023-01-30T08:05:06;1.80;99.90
25200;DHT22;33094;48.782;9.162;2023-01-30T08:07:32;1.80;99.90
25200;DHT22;33094;48.782;9.162;2023-01-30T08:09:58;3.80;99.90
25200;DHT22;33094;48.782;9.162;2023-01-30T08:12:23;1.80;99.90
25200;DHT22;33094;48.782;9.162;2023-01-30T08:14:49;3.00;99.90
25200;DHT22;33094;48.782;9.162;2023-01-30T08:17:15;1.80;99.90
25200;DHT22;33094;48.782;9.162;2023-01-30T08:19:40;3.80;99.90
25200;DHT22;33094;48.782;9.162;2023-01-30T08:22:06;1.70;99.90
25200;DHT22;33094;48.782;9.162;2023-01-30T08:24:31;1.80;99.90
25200;DHT22;33094;48.782;9.162;2023-01-30T08:26:57;1.60;99.90
25200;DHT22;33094;48.782;9.162;2023-01-30T08:29:24;1.70;99.90
25200;DHT22;33094;48.782;9.162;2023-01-30T08:31:50;1.80;99.90
25200;DHT22;33094;48.782;9.162;2023-01-30T08:34:15;1.70;99.90
25200;DHT22;33094;48.782;9.162;2023-01-30T08:36:41;2.80;99.90
25200;DHT22;33094;48.782;9.162;2023-01-30T08:39:06;1.70;99.90
25200;DHT22;33094;48.782;9.162;2023-01-30T08:41:32;2.20;99.90
25200;DHT22;33094;48.782;9.162;2023-01-30T08:43:58;1.90;99.90
25200;DHT22;33094;48.782;9.162;2023-01-30T08:46:23;4.20;99.90
25200;DHT22;33094;48.782;9.162;2023-01-30T08:48:49;1.90;99.90
25200;DHT22;33094;48.782;9.162;2023-01-30T08:51:15;1.90;99.90
25200;DHT22;33094;48.782;9.162;2023-01-30T08:53:40;2.00;99.90
25200;DHT22;33094;48.782;9.162;2023-01-30T08:56:06;2.10;99.90
25200;DHT22;33094;48.782;9.162;2023-01-30T08:58:32;3.00;99.90
25200;DHT22;33094;48.782;9.162;2023-01-30T09:00:57;2.20;99.90
25200;DHT22;33094;48.782;9.162;2023-01-30T09:03:23;4.40;99.90
25200;DHT22;33094;48.782;9.162;2023-01-30T09:05:57;4.20;99.90
25200;DHT22;33094;48.782;9.162;2023-01-30T09:08:23;2.50;99.90
25200;DHT22;33094;48.782;9.162;2023-01-30T09:10:49;3.10;99.90
25200;DHT22;33094;48.782;9.162;2023-01-30T09:13:17;2.30;99.90
25200;DHT22;33094;48.782;9.162;2023-01-30T09:15:43;2.50;99.90
25200;DHT22;33094;48.782;9.162;2023-01-30T09:18:09;3.80;99.90
25200;DHT22;33094;48.782;9.162;2023-01-30T09:20:35;2.60;99.90
25200;DHT22;33094;48.782;9.162;2023-01-30T09:28:14;2.70;99.90
25200;DHT22;33094;48.782;9.162;2023-01-30T09:46:21;3.00;99.90
25200;DHT22;33094;48.782;9.162;2023-01-30T10:12:44;3.80;99.90
25200;DHT22;33094;48.782;9.162;2023-01-30T11:28:12;4.30;99.90
25200;DHT22;33094;48.782;9.162;2023-01-30T11:54:04;3.20;99.90
25200;DHT22;33094;48.782;9.162;2023-01-30T16:29:19;4.30;99.90
25200;DHT22;33094;48.782;9.162;2023-01-30T16:39:35;4.30;99.90
25200;DHT22;33094;48.782;9.162;2023-01-30T16:42:21;4.30;99.90
25200;DHT22;33094;48.782;9.162;2023-01-30T16:44:48;3.80;99.90
25200;DHT22;33094;48.782;9.162;2023-01-30T16:52:38;4.20;99.90
25200;DHT22;33094;48.782;9.162;2023-01-30T16:55:20;3.10;99.90
25200;DHT22;33094;48.782;9.162;2023-01-30T17:00:27;4.30;99.90
25200;DHT22;33094;48.782;9.162;2023-01-30T17:05:39;4.30;99.90
25200;DHT22;33094;48.782;9.162;2023-01-30T17:19:11;4.20;99.90
25200;DHT22;33094;48.782;9.162;2023-01-30T17:21:48;3.80;99.90
25200;DHT22;33094;48.782;9.162;2023-01-30T17:44:52;4.00;99.90
25200;DHT22;33094;48.782;9.162;2023-01-30T17:55:05;4.00;99.90
25200;DHT22;33094;48.782;9.162;2023-01-30T17:57:32;3.10;99.90
25200;DHT22;33094;48.782;9.162;2023-01-30T18:05:22;3.90;99.90
25200;DHT22;33094;48.782;9.162;2023-01-30T18:07:49;1.60;99.90
25200;DHT22;33094;48.782;9.162;2023-01-30T18:15:26;3.80;99.90
25200;DHT22;33094;48.782;9.162;2023-01-30T18:17:52;3.50;99.90
25200;DHT22;33094;48.782;9.162;2023-01-30T18:20:21;4.70;99.90
25200;DHT22;33094;48.782;9.162;2023-01-30T18:28:07;4.00;99.90
25200;DHT22;33094;48.782;9.162;2023-01-30T18:30:35;5.00;99.90
25200;DHT22;33094;48.782;9.162;2023-01-30T18:35:40;2.40;99.90
25200;DHT22;33094;48.782;9.162;2023-01-30T18:38:18;4.00;99.90
25200;DHT22;33094;48.782;9.162;2023-01-30T18:43:33;4.10;99.90
25200;DHT22;33094;48.782;9.162;2023-01-30T18:46:01;4.10;99.90
25200;DHT22;33094;48.782;9.162;2023-01-30T18:48:32;5.20;99.90
25200;DHT22;33094;48.782;9.162;2023-01-30T18:51:18;3.40;99.90
25200;DHT22;33094;48.782;9.162;2023-01-30T18:53:49;4.90;99.90
25200;DHT22;33094;48.782;9.162;2023-01-30T18:56:21;4.00;99.90
25200;DHT22;33094;48.782;9.162;2023-01-30T18:58:48;4.10;99.90
25200;DHT22;33094;48.782;9.162;2023-01-30T19:01:19;4.20;99.90
25200;DHT22;33094;48.782;9.162;2023-01-30T19:03:45;4.20;99.90
25200;DHT22;33094;48.782;9.162;2023-01-30T19:06:12;2.00;99.90
25200;DHT22;33094;48.782;9.162;2023-01-30T19:08:40;4.20;99.90
25200;DHT22;33094;48.782;9.162;2023-01-30T19:11:09;3.60;99.90
25200;DHT22;33094;48.782;9.162;2023-01-30T19:13:54;4.10;99.90
25200;DHT22;33094;48.782;9.162;2023-01-30T19:16:22;4.10;99.90
25200;DHT22;33094;48.782;9.162;2023-01-30T19:18:49;5.50;99.90
25200;DHT22;33094;48.782;9.162;2023-01-30T19:21:16;5.10;99.90
25200;DHT22;33094;48.782;9.162;2023-01-30T19:23:42;2.90;99.90
25200;DHT22;33094;48.782;9.162;2023-01-30T19:26:09;2.10;99.90
25200;DHT22;33094;48.782;9.162;2023-01-30T19:28:35;4.00;99.90
25200;DHT22;33094;48.782;9.162;2023-01-30T19:31:05;3.80;99.90
25200;DHT22;33094;48.782;9.162;2023-01-30T19:38:43;4.20;99.90
25200;DHT22;33094;48.782;9.162;2023-01-30T19:51:33;4.20;99.90
25200;DHT22;33094;48.782;9.162;2023-01-30T19:59:12;4.10;99.90
25200;DHT22;33094;48.782;9.162;2023-01-30T20:01:41;2.40;99.90
25200;DHT22;33094;48.782;9.162;2023-01-30T20:06:42;4.10;99.90
25200;DHT22;33094;48.782;9.162;2023-01-30T20:16:48;4.10;99.90
25200;DHT22;33094;48.782;9.162;2023-01-30T20:19:16;2.80;99.90
25200;DHT22;33094;48.782;9.162;2023-01-30T20:21:43;4.10;99.90
25200;DHT22;33094;48.782;9.162;2023-01-30T20:24:13;5.50;99.90
25200;DHT22;33094;48.782;9.162;2023-01-30T20:31:52;4.10;99.90
25200;DHT22;33094;48.782;9.162;2023-01-30T20:34:24;4.00;99.90
25200;DHT22;33094;48.782;9.162;2023-01-30T20:36:51;3.80;99.90
25200;DHT22;33094;48.782;9.162;2023-01-30T20:41:55;4.30;99.90
25200;DHT22;33094;48.782;9.162;2023-01-30T20:44:21;3.30;99.90
25200;DHT22;33094;48.782;9.162;2023-01-30T20:46:50;2.50;99.90
25200;DHT22;33094;48.782;9.162;2023-01-30T20:49:23;4.40;99.90
25200;DHT22;33094;48.782;9.162;2023-01-30T20:51:51;4.50;99.90
25200;DHT22;33094;48.782;9.162;2023-01-30T20:54:20;4.20;99.90
25200;DHT22;33094;48.782;9.162;2023-01-30T20:59:23;4.30;99.90
25200;DHT22;33094;48.782;9.162;2023-01-30T21:01:52;3.20;99.90
25200;DHT22;33094;48.782;9.162;2023-01-30T21:04:20;6.30;99.90
25200;DHT22;33094;48.782;9.162;2023-01-30T21:09:20;4.30;99.90
25200;DHT22;33094;48.782;9.162;2023-01-30T21:17:01;4.40;99.90
25200;DHT22;33094;48.782;9.162;2023-01-30T21:19:28;3.50;99.90
25200;DHT22;33094;48.782;9.162;2023-01-30T21:21:54;3.80;99.90
25200;DHT22;33094;48.782;9.162;2023-01-30T21:24:23;4.30;99.90
25200;DHT22;33094;48.782;9.162;2023-01-30T21:26:50;4.30;99.90
25200;DHT22;33094;48.782;9.162;2023-01-30T21:29:18;4.40;99.90
25200;DHT22;33094;48.782;9.162;2023-01-30T21:31:45;2.60;99.90
25200;DHT22;33094;48.782;9.162;2023-01-30T21:44:40;4.40;99.90
25200;DHT22;33094;48.782;9.162;2023-01-30T21:47:09;2.00;99.90
25200;DHT22;33094;48.782;9.162;2023-01-30T21:57:22;4.30;99.90
25200;DHT22;33094;48.782;9.162;2023-01-30T21:59:48;6.60;99.90
25200;DHT22;33094;48.782;9.162;2023-01-30T22:02:15;3.70;99.90
25200;DHT22;33094;48.782;9.162;2023-01-30T22:17:31;4.40;99.90
25200;DHT22;33094;48.782;9.162;2023-01-30T22:19:57;2.90;99.90
25200;DHT22;33094;48.782;9.162;2023-01-30T22:30:15;4.30;99.90
25200;DHT22;33094;48.782;9.162;2023-01-30T22:32:42;2.90;99.90
25200;DHT22;33094;48.782;9.162;2023-01-30T22:37:43;4.40;99.90
25200;DHT22;33094;48.782;9.162;2023-01-30T22:40:10;3.60;99.90
25200;DHT22;33094;48.782;9.162;2023-01-30T22:45:12;4.30;99.90
25200;DHT22;33094;48.782;9.162;2023-01-30T22:47:38;3.40;99.90
25200;DHT22;33094;48.782;9.162;2023-01-30T22:50:06;2.70;99.90
25200;DHT22;33094;48.782;9.162;2023-01-30T22:52:34;6.30;99.90
25200;DHT22;33094;48.782;9.162;2023-01-30T23:05:23;4.40;99.90
25200;DHT22;33094;48.782;9.162;2023-01-30T23:13:02;4.40;99.90
25200;DHT22;33094;48.782;9.162;2023-01-30T23:39:16;4.30;99.90
25200;DHT22;33094;48.782;9.162;2023-01-30T23:52:09;4.20;99.90
25200;DHT22;33094;48.782;9.162;2023-01-30T23:54:38;2.40;99.90
25200;DHT22;33094;48.782;9.162;2023-01-30T23:57:05;3.80;99.90
